Time;durP1;ratioP1;P1;durP2;ratioP2;P2;SDS_P1;SDS_P2;PMS_P1;PMS_P2;Temp;Humidity;BMP_temperature;BMP_pressure;BME280_temperature;BME280_humidity;BME280_pressure;Samples;Min_cycle;Max_cycle;Signal;HPM_P1;HPM_P2
2021/09/20 00:00:21;;;;;;;5.85;2.78;;;;;;;;;;5039346;28;20033;-83
2021/09/20 00:02:48;;;;;;;3.50;2.50;;;;;;;;;;5043133;28;20050;-84
2021/09/20 00:05:14;;;;;;;4.03;2.30;;;;;;;;;;5039739;28;20030;-87
2021/09/20 00:07:40;;;;;;;4.03;2.50;;;;;;;;;;5042079;28;20097;-86
2021/09/20 00:10:07;;;;;;;3.92;2.42;;;;;;;;;;5035182;28;20554;-84
2021/09/20 00:12:33;;;;;;;3.38;2.45;;;;;;;;;;5037905;28;20029;-85
2021/09/20 00:14:59;;;;;;;6.35;2.90;;;;;;;;;;5037617;28;20033;-87
2021/09/20 00:17:25;;;;;;;3.55;2.53;;;;;;;;;;5041323;28;20030;-86
2021/09/20 00:19:51;;;;;;;4.82;3.28;;;;;;;;;;5034918;28;20057;-86
2021/09/20 00:22:17;;;;;;;4.45;2.67;;;;;;;;;;5037012;28;20041;-84
2021/09/20 00:24:44;;;;;;;7.00;3.20;;;;;;;;;;5040310;28;20495;-84
2021/09/20 00:27:11;;;;;;;5.72;3.63;;;;;;;;;;5035703;28;20025;-85
2021/09/20 00:29:40;;;;;;;7.28;3.80;;;;;;;;;;5037248;28;20034;-85
2021/09/20 00:32:06;;;;;;;7.13;3.72;;;;;;;;;;5039326;28;20022;-88
2021/09/20 00:34:32;;;;;;;6.28;4.00;;;;;;;;;;5041682;28;20102;-86
2021/09/20 00:36:58;;;;;;;7.15;4.70;;;;;;;;;;5042280;28;20493;-86
2021/09/20 00:39:24;;;;;;;6.55;4.38;;;;;;;;;;5044183;28;20120;-86
2021/09/20 00:41:50;;;;;;;6.75;4.50;;;;;;;;;;5052495;28;20080;-87
2021/09/20 00:44:16;;;;;;;6.97;4.15;;;;;;;;;;5042830;28;20018;-87
2021/09/20 00:46:42;;;;;;;6.60;4.40;;;;;;;;;;5042754;28;20025;-83
2021/09/20 00:49:08;;;;;;;7.65;4.63;;;;;;;;;;5041218;28;20033;-82
2021/09/20 00:51:35;;;;;;;6.85;4.32;;;;;;;;;;5041111;28;20050;-85
2021/09/20 00:54:01;;;;;;;6.97;4.00;;;;;;;;;;5037995;28;20033;-86
2021/09/20 00:56:29;;;;;;;8.52;5.47;;;;;;;;;;5033595;28;20053;-84
2021/09/20 00:58:56;;;;;;;8.50;5.00;;;;;;;;;;5036621;28;20037;-85
2021/09/20 01:01:23;;;;;;;8.18;5.47;;;;;;;;;;5041592;28;20487;-86
2021/09/20 01:03:49;;;;;;;12.63;6.45;;;;;;;;;;5039791;28;20406;-85
2021/09/20 01:06:15;;;;;;;10.15;6.28;;;;;;;;;;5044214;28;20025;-86
2021/09/20 01:08:41;;;;;;;9.75;6.07;;;;;;;;;;5049809;28;20036;-85
2021/09/20 01:11:07;;;;;;;8.13;5.28;;;;;;;;;;5042902;28;20029;-85
2021/09/20 01:13:33;;;;;;;7.60;3.97;;;;;;;;;;5046754;28;20025;-87
2021/09/20 01:15:59;;;;;;;5.88;3.80;;;;;;;;;;5041850;28;20021;-85
2021/09/20 01:18:25;;;;;;;6.03;3.88;;;;;;;;;;5043118;28;20093;-82
2021/09/20 01:20:51;;;;;;;5.85;3.97;;;;;;;;;;5053354;28;20036;-88
2021/09/20 01:23:18;;;;;;;6.93;4.50;;;;;;;;;;5030075;28;20033;-85
2021/09/20 01:25:44;;;;;;;5.53;4.22;;;;;;;;;;5041207;28;20045;-85
2021/09/20 01:28:10;;;;;;;5.80;3.75;;;;;;;;;;5042800;28;20021;-84
2021/09/20 01:30:37;;;;;;;6.45;3.97;;;;;;;;;;5039794;28;20029;-83
2021/09/20 01:33:03;;;;;;;5.70;4.22;;;;;;;;;;5043490;28;20041;-85
2021/09/20 01:35:29;;;;;;;11.95;3.78;;;;;;;;;;5040544;28;20547;-84
2021/09/20 01:37:55;;;;;;;6.97;3.85;;;;;;;;;;5046660;28;20102;-85
2021/09/20 01:40:21;;;;;;;5.43;4.32;;;;;;;;;;5040553;28;20030;-86
2021/09/20 01:42:47;;;;;;;10.32;6.10;;;;;;;;;;5041912;28;20052;-86
2021/09/20 01:45:14;;;;;;;9.93;5.38;;;;;;;;;;5039174;28;20060;-86
2021/09/20 01:47:41;;;;;;;10.82;5.55;;;;;;;;;;5044567;28;20021;-85
2021/09/20 01:50:08;;;;;;;9.25;5.80;;;;;;;;;;5043210;28;20018;-82
2021/09/20 01:52:34;;;;;;;7.28;5.05;;;;;;;;;;5058067;28;20033;-86
2021/09/20 01:55:00;;;;;;;7.05;4.78;;;;;;;;;;5043199;28;20109;-85
2021/09/20 01:57:27;;;;;;;8.93;5.40;;;;;;;;;;5040281;28;20026;-84
2021/09/20 01:59:53;;;;;;;8.20;4.82;;;;;;;;;;5043181;28;20029;-86
2021/09/20 02:02:20;;;;;;;9.43;5.60;;;;;;;;;;5041524;28;20101;-84
2021/09/20 02:04:46;;;;;;;7.30;5.03;;;;;;;;;;5039250;28;20028;-84
2021/09/20 02:07:12;;;;;;;7.63;4.80;;;;;;;;;;5038410;28;20037;-85
2021/09/20 02:09:38;;;;;;;7.20;4.55;;;;;;;;;;5043496;28;20038;-88
2021/09/20 02:12:04;;;;;;;7.40;4.70;;;;;;;;;;5043281;28;20031;-86
2021/09/20 02:14:30;;;;;;;6.57;4.50;;;;;;;;;;5034609;28;20029;-87
2021/09/20 02:16:56;;;;;;;7.25;4.13;;;;;;;;;;5039105;28;20017;-86
2021/09/20 02:19:23;;;;;;;6.03;4.07;;;;;;;;;;5048648;28;20416;-87
2021/09/20 02:21:49;;;;;;;4.72;3.45;;;;;;;;;;5046778;28;20041;-84
2021/09/20 02:24:15;;;;;;;5.68;3.50;;;;;;;;;;5039321;28;20029;-84
2021/09/20 02:26:41;;;;;;;4.50;3.45;;;;;;;;;;5038034;28;20045;-86
2021/09/20 02:29:07;;;;;;;4.78;3.20;;;;;;;;;;5041985;28;20048;-87
2021/09/20 02:31:33;;;;;;;4.65;3.53;;;;;;;;;;5041484;28;20030;-87
2021/09/20 02:33:59;;;;;;;6.40;3.90;;;;;;;;;;5041863;28;20036;-86
2021/09/20 02:36:25;;;;;;;5.75;3.75;;;;;;;;;;5041222;28;20043;-85
2021/09/20 02:38:51;;;;;;;5.80;3.92;;;;;;;;;;5054136;28;20045;-86
2021/09/20 02:41:17;;;;;;;4.78;3.70;;;;;;;;;;5040712;28;20037;-85
2021/09/20 02:43:44;;;;;;;4.63;3.58;;;;;;;;;;5040691;28;20034;-84
2021/09/20 02:46:10;;;;;;;6.43;3.45;;;;;;;;;;5058685;28;20479;-86
2021/09/20 02:48:36;;;;;;;5.20;3.58;;;;;;;;;;5042899;28;20395;-86
2021/09/20 02:51:03;;;;;;;6.80;3.35;;;;;;;;;;5040956;28;20033;-85
2021/09/20 02:53:29;;;;;;;5.53;4.00;;;;;;;;;;5040780;28;20057;-83
2021/09/20 02:55:55;;;;;;;4.45;3.55;;;;;;;;;;5036664;28;20386;-85
2021/09/20 02:58:21;;;;;;;4.53;3.47;;;;;;;;;;5039809;28;20028;-87
2021/09/20 03:00:47;;;;;;;5.22;3.80;;;;;;;;;;5041216;28;20486;-85
2021/09/20 03:03:14;;;;;;;5.85;3.67;;;;;;;;;;5035349;28;20029;-84
2021/09/20 03:05:40;;;;;;;5.38;3.92;;;;;;;;;;5030143;28;20034;-87
2021/09/20 03:08:06;;;;;;;6.80;4.22;;;;;;;;;;5036450;28;20112;-84
2021/09/20 03:10:33;;;;;;;6.30;4.55;;;;;;;;;;5043656;28;20052;-87
2021/09/20 03:12:59;;;;;;;6.45;4.30;;;;;;;;;;5043784;28;20029;-86
2021/09/20 03:15:25;;;;;;;7.40;4.43;;;;;;;;;;5038331;28;20029;-85
2021/09/20 03:17:51;;;;;;;7.88;5.43;;;;;;;;;;5030157;28;20061;-86
2021/09/20 03:20:18;;;;;;;8.20;4.75;;;;;;;;;;5033957;28;20132;-88
2021/09/20 03:22:44;;;;;;;9.93;6.10;;;;;;;;;;5033242;28;20037;-86
2021/09/20 03:25:11;;;;;;;13.77;7.47;;;;;;;;;;5051654;28;20085;-87
2021/09/20 03:27:37;;;;;;;10.20;6.75;;;;;;;;;;5051625;28;20030;-85
2021/09/20 03:30:04;;;;;;;14.50;7.82;;;;;;;;;;5038076;28;20036;-86
2021/09/20 03:32:30;;;;;;;11.70;7.82;;;;;;;;;;5047065;28;20041;-87
2021/09/20 03:34:57;;;;;;;12.70;7.75;;;;;;;;;;5034675;28;20025;-87
2021/09/20 03:37:23;;;;;;;12.27;8.27;;;;;;;;;;5044096;28;20030;-86
2021/09/20 03:39:49;;;;;;;12.32;8.52;;;;;;;;;;5041679;28;20037;-85
2021/09/20 03:42:15;;;;;;;12.88;7.85;;;;;;;;;;5033901;28;20038;-86
2021/09/20 03:44:41;;;;;;;14.10;8.00;;;;;;;;;;5036322;28;20044;-85
2021/09/20 03:47:07;;;;;;;14.32;8.75;;;;;;;;;;5033927;28;20029;-86
2021/09/20 03:49:33;;;;;;;14.27;8.25;;;;;;;;;;5030902;28;20037;-87
2021/09/20 03:52:00;;;;;;;13.43;8.40;;;;;;;;;;5028986;28;20045;-87
2021/09/20 03:54:26;;;;;;;14.27;8.32;;;;;;;;;;5030036;28;20026;-85
2021/09/20 03:56:52;;;;;;;13.52;8.18;;;;;;;;;;5032963;28;20033;-88
2021/09/20 03:59:18;;;;;;;13.18;8.63;;;;;;;;;;5034351;28;20037;-87
2021/09/20 04:01:44;;;;;;;13.93;8.70;;;;;;;;;;5034912;28;20030;-87
2021/09/20 04:04:10;;;;;;;13.10;7.60;;;;;;;;;;5035094;28;20028;-87
2021/09/20 04:06:36;;;;;;;13.80;7.60;;;;;;;;;;5029465;28;20029;-86
2021/09/20 04:09:03;;;;;;;13.32;7.15;;;;;;;;;;5038957;28;20026;-86
2021/09/20 04:11:30;;;;;;;12.02;7.32;;;;;;;;;;5042597;28;20037;-87
2021/09/20 04:13:56;;;;;;;14.23;7.82;;;;;;;;;;5037730;28;20398;-88
2021/09/20 04:16:22;;;;;;;13.77;7.45;;;;;;;;;;5041368;28;20033;-85
2021/09/20 04:18:48;;;;;;;14.60;9.05;;;;;;;;;;5040105;28;20172;-86
2021/09/20 04:21:15;;;;;;;14.25;7.60;;;;;;;;;;5052719;28;20034;-87
2021/09/20 04:23:41;;;;;;;13.63;7.45;;;;;;;;;;5038072;28;20053;-86
2021/09/20 04:26:07;;;;;;;11.90;7.25;;;;;;;;;;5041191;28;20030;-85
2021/09/20 04:28:33;;;;;;;12.48;6.50;;;;;;;;;;5040069;28;20487;-85
2021/09/20 04:30:59;;;;;;;13.07;7.30;;;;;;;;;;5034197;28;20029;-88
2021/09/20 04:33:26;;;;;;;10.88;6.60;;;;;;;;;;5038979;28;20052;-84
2021/09/20 04:35:52;;;;;;;11.38;7.15;;;;;;;;;;5033590;28;20029;-86
2021/09/20 04:38:18;;;;;;;12.30;7.30;;;;;;;;;;5040966;28;20025;-85
2021/09/20 04:40:44;;;;;;;13.23;6.82;;;;;;;;;;5030926;28;20044;-85
2021/09/20 04:43:12;;;;;;;12.50;7.10;;;;;;;;;;5051598;28;20081;-87
2021/09/20 04:45:39;;;;;;;20.67;9.18;;;;;;;;;;5043638;28;20036;-87
2021/09/20 04:48:11;;;;;;;14.85;8.07;;;;;;;;;;5056671;28;20033;-86
2021/09/20 04:50:42;;;;;;;18.70;9.05;;;;;;;;;;5038533;28;20117;-86
2021/09/20 04:53:10;;;;;;;;;;;15.30;99.90;;;;;;5055551;28;20029;-84
2021/09/20 04:55:37;;;;;;;19.17;9.25;;;;;;;;;;5041707;28;19909;-88
2021/09/20 04:58:06;;;;;;;16.83;8.90;;;;;;;;;;5041595;28;20033;-86
2021/09/20 05:00:32;;;;;;;17.95;10.52;;;;;;;;;;5039893;28;20215;-88
2021/09/20 05:02:59;;;;;;;18.85;10.63;;;;;;;;;;5037451;28;20036;-85
2021/09/20 05:05:25;;;;;;;19.23;10.85;;;;;;;;;;5038714;28;20032;-85
2021/09/20 05:07:51;;;;;;;19.60;11.07;;;;;;;;;;5038332;28;20395;-86
2021/09/20 05:10:20;;;;;;;21.08;12.02;;;;;;;;;;5036350;28;20021;-87
2021/09/20 05:12:47;;;;;;;19.05;9.93;;;;;;;;;;5036591;28;20128;-85
2021/09/20 05:15:14;;;;;;;19.77;10.20;;;;;;;;;;5037756;28;20120;-87
2021/09/20 05:17:40;;;;;;;19.85;10.75;;;;;;;;;;5051517;28;20375;-86
2021/09/20 05:20:07;;;;;;;17.77;9.98;;;;;;;;;;5039543;28;20021;-83
2021/09/20 05:22:33;;;;;;;19.30;10.57;;;;;;;;;;5035848;28;20037;-87
2021/09/20 05:24:59;;;;;;;18.38;10.80;;;;;;;;;;5036999;28;20025;-88
2021/09/20 05:27:28;;;;;;;17.02;10.52;;;;;;;;;;5039172;28;20037;-88
2021/09/20 05:29:54;;;;;;;18.05;10.55;;;;;;;;;;5047234;28;20025;-87
2021/09/20 05:32:20;;;;;;;18.52;9.00;;;;;;;;;;5035119;28;20044;-87
2021/09/20 05:34:46;;;;;;;18.52;9.35;;;;;;;;;;5040904;28;20037;-85
2021/09/20 05:37:12;;;;;;;18.15;9.48;;;;;;;;;;5035500;28;20028;-87
2021/09/20 05:39:38;;;;;;;16.02;9.70;;;;;;;;;;5037634;28;20049;-85
2021/09/20 05:42:04;;;;;;;19.85;9.48;;;;;;;;;;5032074;28;20045;-86
2021/09/20 05:44:30;;;;;;;17.50;8.40;;;;;;;;;;5042914;28;20091;-86
2021/09/20 05:46:56;;;;;;;14.80;7.93;;;;;;;;;;5039209;28;20021;-85
2021/09/20 05:49:22;;;;;;;16.15;9.05;;;;;;;;;;5038303;28;20406;-86
2021/09/20 05:51:49;;;;;;;19.77;9.23;;;;;;;;;;5037533;28;20041;-86
2021/09/20 05:54:15;;;;;;;17.48;8.93;;;;;;;;;;5032118;28;20022;-85
2021/09/20 05:56:41;;;;;;;16.65;8.93;;;;;;;;;;5044177;28;20037;-84
2021/09/20 05:59:07;;;;;;;16.55;8.90;;;;;;;;;;5035701;28;20099;-85
2021/09/20 06:01:33;;;;;;;23.70;10.77;;;;;;;;;;5031991;28;20040;-85
2021/09/20 06:03:59;;;;;;;16.80;9.20;;;;;;;;;;5034753;28;20399;-82
2021/09/20 06:06:26;;;;;;;15.43;7.90;;;;;;;;;;5034178;28;20029;-86
2021/09/20 06:08:52;;;;;;;12.25;7.30;;;;;;;;;;5033779;28;20022;-86
2021/09/20 06:11:18;;;;;;;14.00;7.28;;;;;;;;;;5024204;28;20131;-84
2021/09/20 06:13:44;;;;;;;14.65;7.30;;;;;;;;;;5047245;28;20018;-85
2021/09/20 06:16:10;;;;;;;13.30;7.40;;;;;;;;;;5029479;28;20025;-87
2021/09/20 06:18:36;;;;;;;13.80;7.47;;;;;;;;;;5029505;28;20033;-84
2021/09/20 06:21:03;;;;;;;12.27;7.30;;;;;;;;;;5048790;28;20499;-86
2021/09/20 06:23:29;;;;;;;16.27;6.70;;;;;;;;;;5029972;28;20097;-87
2021/09/20 06:25:58;;;;;;;14.57;7.40;;;;;;;;;;5037101;28;20046;-85
2021/09/20 06:28:24;;;;;;;14.70;7.90;;;;;;;;;;5036054;28;20022;-86
2021/09/20 06:30:51;;;;;;;14.95;7.78;;;;;;;;;;5025475;28;20371;-84
2021/09/20 06:33:17;;;;;;;17.23;7.93;;;;;;;;;;5048256;28;20029;-84
2021/09/20 06:35:43;;;;;;;15.77;7.88;;;;;;;;;;5046751;28;20029;-85
2021/09/20 06:38:09;;;;;;;21.48;8.30;;;;;;;;;;5030812;28;20033;-83
2021/09/20 06:40:38;;;;;;;19.80;9.10;;;;;;;;;;5033813;28;20025;-86
2021/09/20 06:43:06;;;;;;;18.63;8.43;;;;;;;;;;5031333;28;20088;-86
2021/09/20 06:45:35;;;;;;;15.85;8.90;;;;;;;;;;5025276;28;20025;-87
2021/09/20 06:48:01;;;;;;;20.50;9.90;;;;;;;;;;5033049;28;20021;-88
2021/09/20 06:50:27;;;;;;;22.90;8.93;;;;;;;;;;5031007;28;20097;-86
2021/09/20 06:52:54;;;;;;;16.60;8.50;;;;;;;;;;5037608;28;20033;-88
2021/09/20 06:55:20;;;;;;;19.70;9.02;;;;;;;;;;5048202;28;20044;-82
2021/09/20 06:57:46;;;;;;;20.38;10.15;;;;;;;;;;5033831;28;20507;-87
2021/09/20 07:00:14;;;;;;;19.70;8.75;;;;;;;;;;5035929;28;20018;-82
2021/09/20 07:02:40;;;;;;;13.43;7.82;;;;;;;;;;5028549;28;20033;-86
2021/09/20 07:05:06;;;;;;;20.23;8.93;;;;;;;;;;5052636;28;20491;-85
2021/09/20 07:07:32;;;;;;;18.80;9.18;;;;;;;;;;5034882;28;20130;-88
2021/09/20 07:09:59;;;;;;;19.27;8.65;;;;;;;;;;5030051;28;20669;-86
2021/09/20 07:12:25;;;;;;;15.43;7.82;;;;;;;;;;5041877;28;20037;-84
2021/09/20 07:14:51;;;;;;;15.10;8.32;;;;;;;;;;5053421;28;20105;-88
2021/09/20 07:17:17;;;;;;;20.67;8.82;;;;;;;;;;5040199;28;20029;-86
2021/09/20 07:19:43;;;;;;;16.17;8.02;;;;;;;;;;5037355;28;20029;-84
2021/09/20 07:22:09;;;;;;;14.48;7.57;;;;;;;;;;5030607;28;20053;-88
2021/09/20 07:24:35;;;;;;;15.82;7.55;;;;;;;;;;5029703;28;20025;-87
2021/09/20 07:27:01;;;;;;;13.93;7.82;;;;;;;;;;5036679;28;20022;-86
2021/09/20 07:29:28;;;;;;;18.75;8.65;;;;;;;;;;5029370;28;20414;-84
2021/09/20 07:31:54;;;;;;;22.48;10.02;;;;;;;;;;5029729;28;20687;-82
2021/09/20 07:34:20;;;;;;;16.85;8.43;;;;;;;;;;5034025;28;20037;-87
2021/09/20 07:36:46;;;;;;;17.85;8.35;;;;;;;;;;5038226;28;20065;-86
2021/09/20 07:39:12;;;;;;;21.58;9.00;;;;;;;;;;5038607;28;20055;-86
2021/09/20 07:41:38;;;;;;;17.00;8.73;;;;;;;;;;5037268;28;20049;-87
2021/09/20 07:44:04;;;;;;;19.35;9.52;;;;;;;;;;5042754;28;20055;-86
2021/09/20 07:46:30;;;;;;;16.90;8.07;;;;;;;;;;5034990;28;20064;-87
2021/09/20 07:48:59;;;;;;;18.55;9.40;;;;;;;;;;5034686;28;20021;-88
2021/09/20 07:51:25;;;;;;;20.52;9.38;;;;;;;;;;5043196;28;20060;-86
2021/09/20 07:53:51;;;;;;;18.90;9.93;;;;;;;;;;5058719;28;20025;-87
2021/09/20 07:56:17;;;;;;;17.88;9.68;;;;;;;;;;5038530;28;20052;-84
2021/09/20 07:58:43;;;;;;;20.52;10.23;;;;;;;;;;5055262;28;20029;-86
2021/09/20 08:01:10;;;;;;;17.83;10.07;;;;;;;;;;5041991;28;20037;-87
2021/09/20 08:03:36;;;;;;;19.38;9.77;;;;;;;;;;5039991;28;20037;-87
2021/09/20 08:06:02;;;;;;;23.00;11.38;;;;;;;;;;5039733;28;20026;-87
2021/09/20 08:08:30;;;;;;;22.00;10.48;;;;;;;;;;5040129;28;20021;-88
2021/09/20 08:10:57;;;;;;;23.45;11.52;;;;;;;;;;5040238;28;20018;-88
2021/09/20 08:13:23;;;;;;;20.73;10.68;;;;;;;;;;5036741;28;20475;-83
2021/09/20 08:15:49;;;;;;;23.30;10.23;;;;;;;;;;5034935;28;20054;-85
2021/09/20 08:18:16;;;;;;;22.75;11.15;;;;;;;;;;5039226;28;20037;-87
2021/09/20 08:20:43;;;;;;;26.83;10.68;;;;;;;;;;5038074;28;20089;-87
2021/09/20 08:23:10;;;;;;;23.42;11.82;;;;;;;;;;5042405;28;20116;-87
2021/09/20 08:25:36;;;;;;;23.13;11.63;;;;;;;;;;5039283;28;20029;-86
2021/09/20 08:28:02;;;;;;;23.75;11.25;;;;;;;;;;5039764;28;20030;-87
2021/09/20 08:30:29;;;;;;;23.90;11.13;;;;;;;;;;5051031;28;20228;-88
2021/09/20 08:32:56;;;;;;;25.27;10.95;;;;;;;;;;5042447;28;20053;-86
2021/09/20 08:35:22;;;;;;;19.42;9.55;;;;;;;;;;5042476;28;20033;-87
2021/09/20 08:37:48;;;;;;;17.00;10.43;;;;;;;;;;5034746;28;20032;-86
2021/09/20 08:40:15;;;;;;;21.90;11.07;;;;;;;;;;5039139;28;20478;-85
2021/09/20 08:42:42;;;;;;;21.98;10.45;;;;;;;;;;5029335;28;20033;-86
2021/09/20 08:45:09;;;;;;;21.83;10.57;;;;;;;;;;5036406;28;20029;-88
2021/09/20 08:47:37;;;;;;;18.38;10.13;;;;;;;;;;5036113;28;20037;-87
2021/09/20 08:50:06;;;;;;;23.77;11.35;;;;;;;;;;5040461;28;20025;-88
2021/09/20 08:52:33;;;;;;;24.77;11.20;;;;;;;;;;5040687;28;20029;-88
2021/09/20 08:54:59;;;;;;;23.50;11.20;;;;;;;;;;5046226;28;20041;-87
2021/09/20 08:57:31;;;;;;;24.58;10.98;;;;;;;;;;5051457;28;20017;-84
2021/09/20 09:00:03;;;;;;;22.38;11.15;;;;;;;;;;5041403;28;20021;-86
2021/09/20 09:02:31;;;;;;;24.90;11.15;;;;;;;;;;5040385;28;20033;-86
2021/09/20 09:05:13;;;;;;;20.20;10.52;;;;;;;;;;5042602;28;20030;-87
2021/09/20 09:07:49;;;;;;;21.23;11.00;;;;;;;;;;5056320;28;20065;-86
2021/09/20 09:10:16;;;;;;;25.92;11.63;;;;;;;;;;5042781;28;20033;-87
2021/09/20 09:12:45;;;;;;;20.80;11.32;;;;;;;;;;5038049;28;20033;-88
2021/09/20 09:15:12;;;;;;;27.23;12.48;;;;;;;;;;5040532;28;20124;-85
2021/09/20 09:17:42;;;;;;;24.15;12.40;;;;;;;;;;5041240;28;20030;-88
2021/09/20 09:20:13;;;;;;;24.33;11.52;;;;;;;;;;5041906;28;20026;-83
2021/09/20 09:22:43;;;;;;;20.13;11.05;;;;;;;;;;5041677;28;20036;-87
2021/09/20 09:25:10;;;;;;;;;;;15.10;99.90;;;;;;5039060;28;20033;-87
2021/09/20 09:27:37;;;;;;;22.05;10.40;;;;;;;;;;5053754;28;19909;-88
2021/09/20 09:30:07;;;;;;;21.75;10.38;;;;;;;;;;5039121;28;20029;-87
2021/09/20 09:32:34;;;;;;;27.00;11.35;;;;;;;;;;5040044;28;20097;-88
2021/09/20 09:35:03;;;;;;;22.13;11.30;;;;;;;;;;5039065;28;20044;-84
2021/09/20 09:37:30;;;;;;;21.25;10.85;;;;;;;;;;5033360;28;20029;-86
2021/09/20 09:40:08;;;;;;;22.75;11.35;;;;;;;;;;5037587;28;20533;-88
2021/09/20 09:42:34;;;;;;;22.25;10.18;;;;;;;;;;5040557;28;20030;-86
2021/09/20 09:45:13;;;;;;;19.55;10.30;;;;;;;;;;5036956;28;20049;-88
2021/09/20 09:47:39;;;;;;;21.33;10.73;;;;;;;;;;5030131;28;20037;-89
2021/09/20 09:50:17;;;;;;;22.13;9.68;;;;;;;;;;5034167;28;20054;-87
2021/09/20 09:52:44;;;;;;;19.38;10.20;;;;;;;;;;5046181;28;20042;-85
2021/09/20 09:55:11;;;;;;;20.20;9.70;;;;;;;;;;5025646;28;20029;-87
2021/09/20 09:57:37;;;;;;;19.33;10.48;;;;;;;;;;5025081;28;20521;-86
2021/09/20 10:00:18;;;;;;;20.73;11.50;;;;;;;;;;5030158;28;20038;-85
2021/09/20 10:02:48;;;;;;;23.40;11.18;;;;;;;;;;5027003;28;20155;-87
2021/09/20 10:05:15;;;;;;;18.80;10.18;;;;;;;;;;5027908;28;20025;-87
2021/09/20 10:07:43;;;;;;;18.73;9.95;;;;;;;;;;5030983;28;20029;-88
2021/09/20 10:10:16;;;;;;;21.40;10.00;;;;;;;;;;5030272;28;20041;-85
2021/09/20 10:12:44;;;;;;;20.42;9.98;;;;;;;;;;5043990;28;20034;-87
2021/09/20 10:15:17;;;;;;;18.27;9.15;;;;;;;;;;5033066;28;20029;-85
2021/09/20 10:17:43;;;;;;;17.77;9.77;;;;;;;;;;5032881;28;20030;-84
2021/09/20 10:20:12;;;;;;;16.85;9.85;;;;;;;;;;5037098;28;20096;-85
2021/09/20 10:22:38;;;;;;;17.27;8.93;;;;;;;;;;5031291;28;20033;-82
2021/09/20 10:25:05;;;;;;;18.65;9.18;;;;;;;;;;5028261;28;20033;-87
2021/09/20 10:27:32;;;;;;;16.20;9.98;;;;;;;;;;5024837;28;20017;-84
2021/09/20 10:30:04;;;;;;;18.70;9.60;;;15.90;99.90;;;;;;5024968;28;20033;-85
2021/09/20 10:32:30;;;;;;;15.35;9.18;;;;;;;;;;5026721;28;20037;-87
2021/09/20 10:35:29;;;;;;;16.17;9.20;;;16.00;99.90;;;;;;5028770;28;20034;-86
2021/09/20 10:37:59;;;;;;;17.85;9.27;;;16.10;99.90;;;;;;5005093;28;20048;-78
2021/09/20 10:40:25;;;;;;;15.95;8.73;;;;;;;;;;5022264;28;20022;-84
2021/09/20 10:43:00;;;;;;;16.85;8.77;;;16.30;99.90;;;;;;5029021;28;20124;-85
2021/09/20 10:45:42;;;;;;;14.98;8.90;;;16.40;99.90;;;;;;5027979;28;20026;-85
2021/09/20 10:48:17;;;;;;;14.02;8.45;;;16.40;99.90;;;;;;5029948;28;20045;-86
2021/09/20 10:50:55;;;;;;;22.25;9.52;;;16.40;99.90;;;;;;5044076;28;20029;-83
2021/09/20 10:53:22;;;;;;;17.50;9.73;;;;;;;;;;5025576;28;20034;-86
2021/09/20 10:56:03;;;;;;;15.65;8.40;;;16.40;99.90;;;;;;5021938;28;20114;-86
2021/09/20 10:58:34;;;;;;;16.95;9.35;;;16.40;99.90;;;;;;5044041;28;20030;-87
2021/09/20 11:01:12;;;;;;;17.98;9.43;;;16.40;99.90;;;;;;5027527;28;20061;-87
2021/09/20 11:03:48;;;;;;;17.55;9.45;;;16.40;99.90;;;;;;5038902;28;20033;-87
2021/09/20 11:06:23;;;;;;;16.30;8.75;;;16.50;99.90;;;;;;5027526;28;20022;-86
2021/09/20 11:08:57;;;;;;;13.85;8.23;;;16.60;99.90;;;;;;5044024;28;20029;-86
2021/09/20 11:11:44;;;;;;;14.68;8.48;;;16.60;99.90;;;;;;5035009;28;20026;-88
2021/09/20 11:14:21;;;;;;;16.33;8.27;;;16.60;99.90;;;;;;5024222;28;20018;-88
2021/09/20 11:16:57;;;;;;;17.02;8.38;;;16.60;99.90;;;;;;5026829;28;20025;-87
2021/09/20 11:19:28;;;;;;;15.10;7.63;;;16.80;99.90;;;;;;5024181;28;20018;-87
2021/09/20 11:22:03;;;;;;;15.07;8.25;;;16.90;99.90;;;;;;5019935;28;20500;-87
2021/09/20 11:24:31;;;;;;;14.82;7.80;;;17.10;99.90;;;;;;5027157;28;20029;-89
2021/09/20 11:26:57;;;;;;;14.00;7.03;;;;;;;;;;5026907;28;20022;-86
2021/09/20 11:29:24;;;;;;;14.52;7.97;;;17.30;99.90;;;;;;5020782;28;20040;-88
2021/09/20 11:31:51;;;;;;;15.35;7.25;;;;;;;;;;5028934;28;20591;-86
2021/09/20 11:35:00;;;;;;;15.30;7.60;;;17.50;99.90;;;;;;5029031;28;20029;-90
2021/09/20 11:37:29;;;;;;;12.93;7.40;;;17.60;99.90;;;;;;4996913;28;20124;-89
2021/09/20 11:40:03;;;;;;;15.95;8.10;;;17.60;99.90;;;;;;5026644;28;20099;-87
2021/09/20 11:42:35;;;;;;;16.15;7.88;;;;;;;;;;5028749;28;21681;-87
2021/09/20 11:45:01;;;;;;;14.65;7.57;;;;;;;;;;5037128;28;20048;-87
2021/09/20 11:47:28;;;;;;;11.25;6.50;;;;;;;;;;5040257;28;20385;-86
2021/09/20 11:50:06;;;;;;;12.43;7.00;;;17.60;99.90;;;;;;5032189;28;20088;-87
2021/09/20 11:52:38;;;;;;;11.73;7.20;;;17.60;99.90;;;;;;5029821;28;20044;-88
2021/09/20 11:55:05;;;;;;;13.25;6.72;;;;;;;;;;5048471;28;20025;-86
2021/09/20 11:57:35;;;;;;;15.25;6.95;;;17.90;99.90;;;;;;5031218;28;20111;-85
2021/09/20 12:00:03;;;;;;;;;;;17.70;99.90;;;;;;5025493;28;20022;-87
2021/09/20 12:02:34;;;;;;;11.68;6.53;;;;;;;;;;5028218;28;19924;-85
2021/09/20 12:05:01;;;;;;;8.60;6.00;;;;;;;;;;5034096;28;20442;-87
2021/09/20 12:07:32;;;;;;;10.30;5.53;;;18.10;99.90;;;;;;5027589;28;20025;-88
2021/09/20 12:10:00;;;;;;;9.55;5.57;;;18.10;99.90;;;;;;5030658;28;20311;-86
2021/09/20 12:12:30;;;;;;;9.43;5.53;;;18.00;99.90;;;;;;5027608;28;20052;-85
2021/09/20 12:15:11;;;;;;;9.95;5.85;;;18.00;99.90;;;;;;5033520;28;20025;-82
2021/09/20 12:17:44;;;;;;;10.02;5.95;;;18.00;99.90;;;;;;5024352;28;20038;-87
2021/09/20 12:20:11;;;;;;;8.20;5.00;;;18.00;99.90;;;;;;5031095;28;20030;-85
2021/09/20 12:22:39;;;;;;;8.02;4.88;;;18.00;99.90;;;;;;5028900;28;20060;-88
2021/09/20 12:25:29;;;;;;;11.32;5.53;;;18.00;99.90;;;;;;5030079;28;20021;-88
2021/09/20 12:27:57;;;;;;;7.78;5.22;;;17.90;99.90;;;;;;5030610;28;20097;-86
2021/09/20 12:30:29;;;;;;;7.63;5.00;;;;;;;;;;5035811;28;20325;-86
2021/09/20 12:33:12;;;;;;;7.93;5.05;;;18.10;99.90;;;;;;5048723;28;20033;-88
2021/09/20 12:35:41;;;;;;;7.85;5.13;;;18.10;99.90;;;;;;5040329;28;20037;-87
2021/09/20 12:38:29;;;;;;;7.63;4.40;;;;;;;;;;5036869;28;20025;-88
2021/09/20 12:40:57;;;;;;;8.95;4.80;;;;;;;;;;5052163;28;20051;-85
2021/09/20 12:43:31;;;;;;;6.70;3.90;;;18.20;99.90;;;;;;5036251;28;20032;-87
2021/09/20 12:46:08;;;;;;;8.25;5.25;;;18.20;99.90;;;;;;5032346;28;20055;-88
2021/09/20 12:48:37;;;;;;;7.10;4.45;;;18.00;99.90;;;;;;5033801;28;20047;-86
2021/09/20 12:51:06;;;;;;;6.90;3.90;;;17.90;99.90;;;;;;5032935;28;20483;-87
2021/09/20 12:53:38;;;;;;;8.38;4.80;;;18.00;99.90;;;;;;5047096;28;20037;-86
2021/09/20 12:56:09;;;;;;;10.43;5.05;;;18.00;99.90;;;;;;5031083;28;20025;-84
2021/09/20 12:58:37;;;;;;;10.32;5.63;;;18.00;99.90;;;;;;5032043;28;20116;-85
2021/09/20 13:01:23;;;;;;;9.68;4.82;;;18.00;99.90;;;;;;5035877;28;20087;-85
2021/09/20 13:03:57;;;;;;;9.95;5.15;;;17.90;99.90;;;;;;5038989;28;20491;-85
2021/09/20 13:06:23;;;;;;;10.32;5.72;;;;;;;;;;5032250;28;20160;-86
2021/09/20 13:09:01;;;;;;;11.45;4.90;;;17.90;99.90;;;;;;5040922;28;20090;-86
2021/09/20 13:11:37;;;;;;;8.52;5.47;;;17.90;99.90;;;;;;5031170;28;20105;-83
2021/09/20 13:14:23;;;;;;;12.10;5.55;;;17.90;99.90;;;;;;5036877;28;20028;-88
2021/09/20 13:16:50;;;;;;;9.77;5.00;;;17.90;99.90;;;;;;5035768;28;20022;-85
2021/09/20 13:19:16;;;;;;;7.13;4.57;;;;;;;;;;5035683;28;20017;-83
2021/09/20 13:21:42;;;;;;;10.63;4.95;;;;;;;;;;5038835;28;20032;-85
2021/09/20 13:24:09;;;;;;;10.60;5.65;;;;;;;;;;5035820;28;20060;-84
2021/09/20 13:26:39;;;;;;;10.88;5.40;;;17.90;99.90;;;;;;5034626;28;20451;-85
2021/09/20 13:29:06;;;;;;;9.45;5.35;;;;;;;;;;5038391;28;20014;-86
2021/09/20 13:31:33;;;;;;;10.15;6.10;;;17.90;99.90;;;;;;5030100;28;20021;-84
2021/09/20 13:34:03;;;;;;;8.77;5.20;;;18.00;99.90;;;;;;5037555;28;20032;-83
2021/09/20 13:36:30;;;;;;;11.07;4.65;;;;;;;;;;5040226;28;20025;-84
2021/09/20 13:38:57;;;;;;;8.25;5.07;;;;;;;;;;5037050;28;20101;-83
2021/09/20 13:41:24;;;;;;;9.82;5.40;;;;;;;;;;5053006;28;20013;-83
2021/09/20 13:43:51;;;;;;;9.90;5.00;;;;;;;;;;5041257;28;20017;-84
2021/09/20 13:46:22;;;;;;;8.63;5.05;;;;;;;;;;5035577;28;20029;-84
2021/09/20 13:48:49;;;;;;;8.68;5.00;;;;;;;;;;5040376;28;20033;-83
2021/09/20 13:51:16;;;;;;;8.65;4.97;;;;;;;;;;5032831;28;20032;-83
2021/09/20 13:53:42;;;;;;;6.22;4.47;;;;;;;;;;5035042;28;20029;-83
2021/09/20 13:56:08;;;;;;;8.63;4.32;;;;;;;;;;5036008;28;20391;-84
2021/09/20 13:58:34;;;;;;;9.27;5.15;;;;;;;;;;5037348;28;20026;-83
2021/09/20 14:01:00;;;;;;;7.22;4.35;;;;;;;;;;5034795;28;20032;-87
2021/09/20 14:03:26;;;;;;;7.00;4.13;;;;;;;;;;5054110;28;20030;-86
2021/09/20 14:05:53;;;;;;;6.80;4.45;;;;;;;;;;5033180;28;20025;-85
2021/09/20 14:08:20;;;;;;;7.45;4.35;;;;;;;;;;5024155;28;20029;-85
2021/09/20 14:10:47;;;;;;;6.70;4.20;;;;;;;;;;5031327;28;20026;-84
2021/09/20 14:13:13;;;;;;;7.00;4.07;;;19.40;99.90;;;;;;5030316;28;20026;-83
2021/09/20 14:15:40;;;;;;;6.53;4.22;;;19.50;99.90;;;;;;5047689;28;20033;-88